Time;durP1;ratioP1;P1;durP2;ratioP2;P2;SDS_P1;SDS_P2;PMS_P1;PMS_P2;Temp;Humidity;BMP_temperature;BMP_pressure;BME280_temperature;BME280_humidity;BME280_pressure;Samples;Min_cycle;Max_cycle;Signal;HPM_P1;HPM_P2
2021/08/05 09:45:36;;;;;;;;;12.25;9.75;;;;;21.27;60.81;100884.81;5135737;23;46042;-80
2021/08/05 09:48:01;;;;;;;;;17.50;13.00;;;;;21.28;59.24;100881.19;4976831;28;45598;-80
2021/08/05 09:50:27;;;;;;;;;13.00;9.00;;;;;21.28;60.10;100873.19;4962360;28;45436;-83
2021/08/05 09:53:10;;;;;;;;;12.75;12.50;;;;;21.26;59.94;100869.75;4979921;28;45550;-79
2021/08/05 09:55:36;;;;;;;;;11.00;9.00;;;;;21.28;60.33;100870.50;4979918;28;46364;-79
2021/08/05 09:58:02;;;;;;;;;16.50;13.50;;;;;21.29;60.34;100860.66;4962330;28;45715;-77
2021/08/05 10:00:41;;;;;;;;;9.50;9.50;;;;;21.27;59.78;100862.59;4979746;28;45234;-76
2021/08/05 10:03:07;;;;;;;;;10.00;10.00;;;;;21.25;60.26;100858.22;4976691;28;45496;-77
2021/08/05 10:05:32;;;;;;;;;8.00;8.00;;;;;21.24;59.60;100853.84;4980226;28;45490;-76
2021/08/05 10:07:59;;;;;;;;;8.00;7.50;;;;;21.22;59.39;100845.09;4979670;28;45358;-76
2021/08/05 10:10:26;;;;;;;;;9.00;9.00;;;;;21.23;59.77;100856.63;4969275;28;45597;-77
2021/08/05 10:12:57;;;;;;;;;9.00;8.75;;;;;21.23;59.88;100851.28;4975870;28;45376;-76
2021/08/05 10:15:24;;;;;;;;;9.75;8.00;;;;;21.22;59.69;100849.59;4969533;28;46312;-76
2021/08/05 10:17:55;;;;;;;;;7.25;6.00;;;;;21.23;59.76;100853.97;4960973;28;45608;-81
2021/08/05 10:20:22;;;;;;;;;8.50;7.25;;;;;21.24;59.82;100848.50;4976216;28;45417;-78
2021/08/05 10:22:49;;;;;;;;;4.25;4.25;;;;;21.24;59.11;100843.16;4960410;28;46192;-79
2021/08/05 10:25:16;;;;;;;;;4.00;4.00;;;;;21.24;58.92;100845.81;4975217;28;45551;-79
2021/08/05 10:27:43;;;;;;;;;7.00;6.00;;;;;21.25;59.73;100847.53;4982585;28;45456;-79
2021/08/05 10:30:12;;;;;;;;;3.50;2.25;;;;;21.25;58.26;100836.84;4960781;28;45332;-79
2021/08/05 10:32:39;;;;;;;;;8.25;8.00;;;;;21.24;59.08;100837.81;4978769;28;45483;-78
2021/08/05 10:35:09;;;;;;;;;4.50;4.50;;;;;21.22;58.82;100830.88;4978499;28;46627;-79
2021/08/05 10:37:35;;;;;;;;;6.00;5.75;;;;;21.20;58.08;100822.13;4965283;28;45524;-79
2021/08/05 10:40:03;;;;;;;;;6.50;4.50;;;;;21.18;59.13;100821.41;4971170;28;45360;-79
2021/08/05 10:42:28;;;;;;;;;6.00;6.00;;;;;21.16;58.33;100829.53;4976339;28;45845;-79
2021/08/05 10:44:53;;;;;;;;;6.25;5.00;;;;;21.18;58.78;100811.56;4977308;28;45590;-79
2021/08/05 10:47:27;;;;;;;;;3.75;3.75;;;;;21.18;58.76;100814.25;4978420;28;45343;-79
2021/08/05 10:49:55;;;;;;;;;5.00;4.50;;;;;21.18;58.05;100814.25;4978768;28;46560;-79
2021/08/05 10:52:39;;;;;;;;;5.00;5.00;;;;;21.20;57.82;100814.97;4978893;28;45545;-79
2021/08/05 10:55:25;;;;;;;;;6.25;6.25;;;;;21.24;58.10;100812.88;4978211;28;46316;-79
2021/08/05 10:58:18;;;;;;;;;4.00;4.00;;;;;21.27;57.79;100807.31;4992363;28;45347;-79
2021/08/05 11:00:49;;;;;;;;;5.00;4.50;;;;;21.30;58.17;100814.25;4977350;28;45147;-79
2021/08/05 11:03:38;;;;;;;;;7.00;5.50;;;;;21.32;57.99;100810.47;4982273;28;45337;-79
2021/08/05 11:06:05;;;;;;;;;9.00;7.00;;;;;21.31;58.26;100806.09;4966235;28;48098;-79
2021/08/05 11:08:31;;;;;;;;;7.25;7.00;;;;;21.31;57.98;100794.56;4982263;28;45436;-79
2021/08/05 11:11:36;;;;;;;;;5.50;4.50;;;;;21.32;58.08;100789.09;4981759;28;45273;-79
2021/08/05 11:14:01;;;;;;;;;4.00;4.00;;;;;21.29;57.68;100781.31;4978249;28;45566;-79
2021/08/05 11:16:59;;;;;;;;;6.75;6.00;;;;;21.27;57.64;100785.06;4982329;28;46221;-79
2021/08/05 11:19:25;;;;;;;;;5.00;4.50;;;;;21.25;57.39;100779.88;4982824;28;45352;-79
2021/08/05 11:21:51;;;;;;;;;8.25;5.00;;;;;21.27;57.71;100769.03;4982126;28;45320;-80
2021/08/05 11:24:42;;;;;;;;;6.00;6.00;;;;;21.32;57.67;100765.03;4963950;28;45400;-79
2021/08/05 11:27:11;;;;;;;;;5.25;5.25;;;;;21.36;56.99;100765.63;4981571;28;46190;-79
2021/08/05 11:29:37;;;;;;;;;5.50;4.00;;;;;21.38;56.97;100752.16;4981272;28;45663;-79
2021/08/05 11:32:20;;;;;;;;;6.00;5.00;;;;;21.42;56.73;100759.81;4981362;28;45388;-79
2021/08/05 11:35:01;;;;;;;;;6.50;5.00;;;;;21.46;56.50;100753.25;4978463;28;45240;-79
2021/08/05 11:37:27;;;;;;;;;3.50;3.50;;;;;21.50;56.40;100748.53;4981809;28;45473;-79
2021/08/05 11:39:59;;;;;;;;;6.75;6.00;;;;;21.54;56.09;100749.13;4987344;28;45498;-79
2021/08/05 11:42:27;;;;;;;;;5.00;5.00;;;;;21.55;56.42;100754.34;4964073;28;45438;-78
2021/08/05 11:44:59;;;;;;;;;6.25;4.00;;;;;21.54;55.74;100747.28;4980336;28;45350;-79
2021/08/05 11:47:34;;;;;;;;;4.00;4.00;;;;;21.54;55.93;100736.59;4981523;28;46211;-78
2021/08/05 11:50:02;;;;;;;;;7.00;5.75;;;;;21.61;55.94;100738.78;4968049;28;45361;-78
2021/08/05 11:52:27;;;;;;;;;3.00;3.00;;;;;21.65;55.70;100740.25;4981753;28;45378;-78
2021/08/05 11:55:09;;;;;;;;;4.00;4.00;;;;;21.70;55.53;100740.72;4981522;28;45637;-79
2021/08/05 11:57:42;;;;;;;;;5.50;4.00;;;;;21.73;55.61;100739.63;4992118;28;46530;-78
2021/08/05 12:00:28;;;;;;;;;4.00;4.00;;;;;21.77;55.87;100735.72;4976309;28;45500;-79
2021/08/05 12:03:02;;;;;;;;;4.50;4.50;;;;;21.79;55.25;100734.63;4968211;28;45340;-78
2021/08/05 12:05:36;;;;;;;;;5.00;4.25;;;;;21.74;55.45;100725.25;4977773;28;45456;-79
2021/08/05 12:08:01;;;;;;;;;3.00;3.00;;;;;21.77;55.65;100730.38;4979847;28;45374;-79
2021/08/05 12:10:29;;;;;;;;;4.00;4.00;;;;;21.79;55.07;100715.91;4980671;28;45299;-78
2021/08/05 12:12:57;;;;;;;;;4.75;4.25;;;;;21.81;55.95;100715.75;4963170;28;45644;-79
2021/08/05 12:15:33;;;;;;;;;3.75;3.00;;;;;21.87;55.73;100725.16;4962489;28;45339;-78
2021/08/05 12:18:09;;;;;;;;;6.00;5.00;;;;;21.89;55.59;100731.22;4980869;28;45450;-78
2021/08/05 12:20:41;;;;;;;;;2.50;2.25;;;;;21.86;54.85;100723.41;4981294;28;45582;-78
2021/08/05 12:23:12;;;;;;;;;3.75;3.00;;;;;21.79;54.77;100713.22;4979893;28;45377;-79
2021/08/05 12:25:46;;;;;;;;;4.00;3.00;;;;;21.77;55.08;100720.53;4980762;28;45458;-79
2021/08/05 12:28:15;;;;;;;;;4.25;3.25;;;;;21.76;55.35;100718.81;4980866;28;46252;-78
2021/08/05 12:30:51;;;;;;;;;2.50;2.50;;;;;21.74;55.24;100704.72;4979017;28;45506;-79
2021/08/05 12:33:23;;;;;;;;;3.00;3.00;;;;;21.74;55.06;100707.41;4980369;28;45213;-78
2021/08/05 12:36:01;;;;;;;;;2.75;2.75;;;;;21.74;55.21;100702.03;4979916;28;45741;-79
2021/08/05 12:38:27;;;;;;;;;4.00;4.00;;;;;21.74;55.35;100698.50;4974860;28;46378;-78
2021/08/05 12:40:55;;;;;;;;;6.75;3.00;;;;;21.74;55.61;100694.03;4980840;28;45545;-78
2021/08/05 12:43:30;;;;;;;;;4.00;3.00;;;;;21.79;55.80;100699.84;4973293;28;45463;-78
2021/08/05 12:45:57;;;;;;;;;2.25;2.25;;;;;21.84;55.38;100703.97;4979778;28;45452;-78
2021/08/05 12:48:23;;;;;;;;;4.00;4.00;;;;;21.83;55.50;100703.09;4979969;28;45301;-78
2021/08/05 12:50:49;;;;;;;;;4.00;4.00;;;;;21.79;55.13;100701.66;4979079;28;45811;-79
2021/08/05 12:53:26;;;;;;;;;4.50;3.75;;;;;21.77;56.15;100695.59;4969985;28;45383;-78
2021/08/05 12:55:53;;;;;;;;;3.75;3.75;;;;;21.77;55.74;100691.09;4962875;28;46146;-78
2021/08/05 12:58:20;;;;;;;;;3.50;3.50;;;;;21.81;55.89;100687.19;4979585;28;45819;-78
2021/08/05 13:00:46;;;;;;;;;3.00;3.00;;;;;21.85;55.37;100681.59;4979465;28;45341;-78
2021/08/05 13:03:12;;;;;;;;;3.00;3.00;;;;;21.82;55.44;100674.69;4962878;28;45468;-78
2021/08/05 13:05:58;;;;;;;;;3.25;3.00;;;;;21.76;55.50;100672.47;4979356;28;45321;-78
2021/08/05 13:08:31;;;;;;;;;3.00;3.00;;;;;21.72;55.12;100671.91;4979940;28;45550;-79
2021/08/05 13:10:58;;;;;;;;;3.00;3.00;;;;;21.67;55.09;100663.41;4979664;28;45622;-78
2021/08/05 13:13:54;;;;;;;;;3.00;3.00;;;;;21.64;55.49;100672.53;4963252;28;45360;-78
2021/08/05 13:16:22;;;;;;;;;2.75;2.75;;;;;21.65;55.65;100662.69;4999130;28;45367;-78
2021/08/05 13:19:07;;;;;;;;;3.00;3.00;;;;;21.67;55.47;100652.72;4998400;28;45442;-78
2021/08/05 13:21:36;;;;;;;;;3.00;3.00;;;;;21.70;55.53;100655.97;4999434;28;45404;-78
2021/08/05 13:24:15;;;;;;;;;3.00;3.00;;;;;21.78;55.95;100646.50;4999427;28;45499;-78
2021/08/05 13:26:43;;;;;;;;;4.00;4.00;;;;;21.83;55.23;100641.56;4999169;28;45475;-78
2021/08/05 13:29:09;;;;;;;;;2.00;2.00;;;;;21.83;55.14;100646.94;4998855;28;46365;-78
2021/08/05 13:31:35;;;;;;;;;2.00;2.00;;;;;21.80;55.00;100631.97;4998963;28;45629;-78
2021/08/05 13:34:12;;;;;;;;;2.75;2.75;;;;;21.79;54.85;100637.47;4976023;28;45508;-78
2021/08/05 13:36:39;;;;;;;;;3.00;1.75;;;;;21.78;55.11;100631.25;4980901;28;45314;-78
2021/08/05 13:39:06;;;;;;;;;2.25;2.25;;;;;21.77;54.77;100637.59;4998199;28;45561;-78
2021/08/05 13:41:32;;;;;;;;;2.00;1.25;;;;;21.76;54.35;100627.88;4999570;28;45509;-78
2021/08/05 13:43:58;;;;;;;;;3.50;3.50;;;;;21.76;54.43;100627.88;4998697;28;45241;-78
2021/08/05 13:46:27;;;;;;;;;1.50;1.50;;;;;21.80;54.70;100623.97;4998401;28;45498;-78
2021/08/05 13:48:55;;;;;;;;;4.00;2.00;;;;;21.84;53.95;100618.34;4998748;28;45458;-78
2021/08/05 13:51:21;;;;;;;;;0.50;0.50;;;;;21.84;53.18;100610.34;4986294;28;45557;-78
2021/08/05 13:53:46;;;;;;;;;2.00;2.00;;;;;21.80;53.52;100618.59;4998924;28;45532;-78
2021/08/05 13:56:12;;;;;;;;;6.00;3.75;;;;;21.79;53.52;100616.06;4999494;28;45452;-78
2021/08/05 13:58:37;;;;;;;;;2.75;2.75;;;;;21.81;53.28;100603.41;4999166;28;45446;-78
2021/08/05 14:01:03;;;;;;;;;2.00;2.00;;;;;21.79;52.60;100597.34;4999395;28;45199;-79
2021/08/05 14:03:29;;;;;;;;;2.00;2.00;;;;;21.77;52.40;100592.13;4990713;28;45771;-80
2021/08/05 14:05:54;;;;;;;;;3.25;2.25;;;;;21.78;52.72;100604.50;4994798;28;45432;-79
2021/08/05 14:08:19;;;;;;;;;3.50;2.75;;;;;21.81;52.08;100598.91;4998553;28;45343;-79
2021/08/05 14:10:45;;;;;;;;;3.50;2.00;;;;;21.84;52.38;100594.28;4998891;28;45405;-79
2021/08/05 14:13:10;;;;;;;;;3.00;2.50;;;;;21.84;52.08;100591.59;4998515;28;45224;-80
2021/08/05 14:15:35;;;;;;;;;2.75;1.00;;;;;21.86;51.39;100589.66;4979143;28;47320;-80
2021/08/05 14:18:01;;;;;;;;;4.75;2.50;;;;;21.88;52.33;100588.56;4995916;28;45349;-80
2021/08/05 14:20:26;;;;;;;;;3.00;3.00;;;;;21.92;51.79;100581.16;4999294;28;45279;-79
2021/08/05 14:22:52;;;;;;;;;2.75;1.50;;;;;21.94;51.78;100591.72;4999230;28;45385;-79
2021/08/05 14:25:17;;;;;;;;;3.00;2.00;;;;;21.95;51.89;100583.59;4983282;28;45499;-80
2021/08/05 14:27:42;;;;;;;;;3.00;2.00;;;;;21.95;51.17;100580.91;5002317;28;46188;-79
2021/08/05 14:30:09;;;;;;;;;3.25;3.25;;;;;21.97;50.83;100570.06;5002123;28;45368;-79
2021/08/05 14:32:34;;;;;;;;;2.25;2.25;;;;;22.00;51.09;100583.19;5000020;28;45297;-79
2021/08/05 14:35:00;;;;;;;;;1.50;1.00;;;;;22.06;51.67;100573.78;4999933;28;45411;-79
2021/08/05 14:37:25;;;;;;;;;3.00;1.75;;;;;22.08;51.16;100567.31;5002092;28;46311;-79
2021/08/05 14:39:51;;;;;;;;;1.25;1.25;;;;;22.10;52.07;100569.88;5002957;28;45182;-79
2021/08/05 14:42:16;;;;;;;;;2.50;2.50;;;;;22.16;50.89;100569.34;4984599;28;45479;-79
2021/08/05 14:44:42;;;;;;;;;2.75;2.75;;;;;22.22;51.71;100567.97;5001718;28;45215;-80
2021/08/05 14:47:07;;;;;;;;;3.00;3.00;;;;;22.27;51.54;100565.75;5002431;28;46439;-79
2021/08/05 14:49:33;;;;;;;;;3.50;2.75;;;;;22.33;51.50;100557.19;5001859;28;45135;-79
2021/08/05 14:51:58;;;;;;;;;2.00;2.00;;;;;22.39;52.21;100561.16;5002402;28;46994;-80
2021/08/05 14:54:23;;;;;;;;;2.75;2.00;;;;;22.43;51.96;100567.09;4999232;28;45614;-80
2021/08/05 14:56:49;;;;;;;;;3.25;1.50;;;;;22.44;51.20;100556.25;5001969;28;46258;-80
2021/08/05 14:59:14;;;;;;;;;2.50;2.50;;;;;22.45;51.41;100557.09;5002098;28;45393;-79
2021/08/05 15:01:41;;;;;;;;;2.50;2.50;;;;;22.48;51.09;100563.03;5002513;28;45248;-82
2021/08/05 15:04:08;;;;;;;;;3.00;2.00;;;;;22.52;51.09;100570.81;5001669;28;45452;-81
2021/08/05 15:06:33;;;;;;;;;3.00;3.00;;;;;22.51;51.63;100571.78;5002114;28;46225;-83
2021/08/05 15:08:59;;;;;;;;;2.50;2.50;;;;;22.51;51.95;100558.38;5002246;28;45289;-81
2021/08/05 15:11:25;;;;;;;;;3.25;3.25;;;;;22.45;51.87;100563.28;5002200;28;45356;-81
2021/08/05 15:13:50;;;;;;;;;3.25;3.00;;;;;22.42;51.97;100573.44;5001539;28;45453;-81
2021/08/05 15:16:16;;;;;;;;;5.50;4.50;;;;;22.37;51.49;100576.50;5001325;28;45178;-80
2021/08/05 15:18:41;;;;;;;;;2.50;2.50;;;;;22.31;52.00;100577.03;5001814;28;45344;-82
2021/08/05 15:21:07;;;;;;;;;1.50;1.50;;;;;22.29;52.42;100579.84;4988083;28;45827;-82
2021/08/05 15:23:32;;;;;;;;;3.00;2.00;;;;;22.24;52.82;100593.63;5001820;28;45521;-81
2021/08/05 15:25:58;;;;;;;;;3.75;3.75;;;;;22.13;53.51;100575.81;5001835;28;45367;-81
2021/08/05 15:28:23;;;;;;;;;3.00;3.00;;;;;21.99;53.32;100573.44;5000524;28;45353;-82
2021/08/05 15:30:49;;;;;;;;;2.75;2.75;;;;;21.92;54.29;100578.47;5001679;28;45800;-82
2021/08/05 15:33:15;;;;;;;;;4.25;4.25;;;;;21.90;53.93;100583.13;5001497;28;45539;-83
2021/08/05 15:35:40;;;;;;;;;4.00;3.00;;;;;21.86;53.80;100582.50;5001484;28;45340;-83
2021/08/05 15:38:06;;;;;;;;;3.00;3.00;;;;;21.85;54.44;100571.91;5000304;28;45248;-82
2021/08/05 15:40:32;;;;;;;;;3.00;2.25;;;;;21.84;54.44;100570.22;4984147;28;45437;-83
2021/08/05 15:42:59;;;;;;;;;4.75;3.00;;;;;21.84;54.52;100563.03;5001725;28;45321;-83
2021/08/05 15:45:24;;;;;;;;;3.00;3.00;;;;;21.85;54.68;100566.56;5000704;28;45316;-84
2021/08/05 15:47:50;;;;;;;;;5.25;5.25;;;;;21.87;55.56;100549.44;5000907;28;45258;-84
2021/08/05 15:50:15;;;;;;;;;5.50;3.00;;;;;21.92;54.67;100551.72;5001869;28;45158;-83
2021/08/05 15:52:40;;;;;;;;;4.25;3.00;;;;;21.92;54.67;100543.69;4995876;28;45352;-82
2021/08/05 15:55:07;;;;;;;;;3.00;2.00;;;;;21.94;55.07;100549.75;4998598;28;45388;-83
2021/08/05 15:57:33;;;;;;;;;3.00;3.00;;;;;21.95;55.04;100550.63;5000797;28;45616;-83
2021/08/05 16:00:03;;;;;;;;;5.25;3.00;;;;;21.97;55.32;100549.50;5000437;28;45358;-82
2021/08/05 16:02:28;;;;;;;;;2.00;2.00;;;;;21.94;54.87;100547.09;5001148;28;46774;-82
2021/08/05 16:04:53;;;;;;;;;3.00;3.00;;;;;21.89;55.31;100535.94;5000550;28;45209;-82
2021/08/05 16:07:19;;;;;;;;;2.75;2.50;;;;;21.83;55.31;100539.09;5001443;28;45240;-77
2021/08/05 16:09:45;;;;;;;;;4.00;2.75;;;;;21.75;55.17;100532.56;4983122;28;45324;-82
2021/08/05 16:12:11;;;;;;;;;3.25;2.00;;;;;21.70;55.23;100522.25;4983181;28;46073;-84
2021/08/05 16:14:36;;;;;;;;;2.25;2.25;;;;;21.68;55.48;100528.72;4970169;28;48051;-84
2021/08/05 16:17:02;;;;;;;;;2.25;2.25;;;;;21.66;55.31;100514.59;5001020;28;45241;-84
2021/08/05 16:19:27;;;;;;;;;2.50;2.50;;;;;21.65;55.52;100519.13;4982478;28;45439;-84
2021/08/05 16:21:54;;;;;;;;;4.00;2.00;;;;;21.64;55.73;100511.22;4999471;28;46736;-84
2021/08/05 16:24:21;;;;;;;;;3.00;2.25;;;;;21.62;55.94;100518.53;5000645;28;47245;-85
2021/08/05 16:26:48;;;;;;;;;2.75;2.75;;;;;21.61;55.96;100501.63;5000885;28;45344;-85
2021/08/05 16:29:15;;;;;;;;;2.25;2.25;;;;;21.62;55.89;100502.47;5000351;28;45472;-84
2021/08/05 16:31:41;;;;;;;;;2.50;1.50;;;;;21.59;55.77;100496.41;5000813;28;45297;-85
2021/08/05 16:34:07;;;;;;;;;4.50;2.00;;;;;21.59;55.61;100495.56;5000618;28;45368;-84
2021/08/05 16:36:32;;;;;;;;;3.00;3.00;;;;;21.56;56.16;100494.00;4983266;28;45262;-85
2021/08/05 16:38:57;;;;;;;;;6.25;3.25;;;;;21.55;55.96;100492.31;5000613;28;45256;-85
2021/08/05 16:41:23;;;;;;;;;2.00;2.00;;;;;21.53;55.88;100488.91;5000093;28;45499;-85
2021/08/05 16:43:48;;;;;;;;;2.00;2.00;;;;;21.53;55.76;100485.41;5000492;28;46474;-85
2021/08/05 16:46:15;;;;;;;;;4.00;3.00;;;;;21.52;55.90;100478.34;4982882;28;45339;-84
2021/08/05 16:48:40;;;;;;;;;3.75;2.75;;;;;21.50;55.91;100467.78;4982531;28;45724;-85
2021/08/05 16:51:05;;;;;;;;;3.75;2.75;;;;;21.50;56.46;100478.50;4979865;28;47009;-84
2021/08/05 16:53:31;;;;;;;;;3.00;1.75;;;;;21.49;56.23;100479.44;5000006;28;45510;-85
2021/08/05 16:55:56;;;;;;;;;3.50;2.00;;;;;21.50;56.73;100474.97;5000786;28;45314;-85
2021/08/05 16:58:22;;;;;;;;;4.00;4.00;;;;;21.50;56.88;100475.81;4999868;28;45856;-84
2021/08/05 17:00:48;;;;;;;;;2.00;2.00;;;;;21.51;56.75;100464.13;4982492;28;45835;-85
2021/08/05 17:03:14;;;;;;;;;4.00;2.25;;;;;21.51;57.04;100457.94;4999518;28;46466;-85
2021/08/05 17:05:41;;;;;;;;;4.00;2.25;;;;;21.51;57.08;100460.63;4999794;28;45251;-85
2021/08/05 17:08:07;;;;;;;;;2.75;2.75;;;;;21.52;57.07;100459.63;4983045;28;45322;-85
2021/08/05 17:10:32;;;;;;;;;3.00;2.50;;;;;21.50;56.80;100454.44;5000183;28;45297;-86
2021/08/05 17:12:58;;;;;;;;;2.00;2.00;;;;;21.49;56.97;100458.06;4979415;28;47144;-85
2021/08/05 17:15:23;;;;;;;;;3.00;3.00;;;;;21.45;57.11;100454.81;4998993;28;45402;-85
2021/08/05 17:17:49;;;;;;;;;3.25;1.50;;;;;21.44;57.13;100452.25;4999801;28;45446;-84
2021/08/05 17:20:14;;;;;;;;;2.25;1.25;;;;;21.42;57.26;100451.53;4999423;28;45531;-85
2021/08/05 17:22:39;;;;;;;;;2.00;1.50;;;;;21.39;57.29;100457.13;5000174;28;46975;-94
2021/08/05 17:25:06;;;;;;;;;2.25;1.75;;;;;21.34;57.86;100447.69;4999507;28;45400;-90
2021/08/05 17:27:32;;;;;;;;;3.50;2.00;;;;;21.29;58.59;100454.38;5000469;28;45408;-90
2021/08/05 17:29:58;;;;;;;;;4.00;2.00;;;;;21.20;58.45;100462.22;4981355;28;46858;-89
2021/08/05 17:32:23;;;;;;;;;2.25;2.25;;;;;21.14;59.34;100452.88;5000017;28;46665;-89
2021/08/05 17:34:49;;;;;;;;;1.75;1.75;;;;;21.12;59.62;100443.28;4999178;28;45266;-89
2021/08/05 17:37:14;;;;;;;;;2.00;1.00;;;;;21.08;59.39;100432.03;4999842;28;45293;-90
2021/08/05 17:39:41;;;;;;;;;2.50;2.25;;;;;21.05;59.37;100432.25;5000014;28;45428;-89
2021/08/05 17:42:07;;;;;;;;;1.75;1.50;;;;;21.07;59.34;100434.78;5000064;28;46195;-88
2021/08/05 17:44:32;;;;;;;;;2.50;2.25;;;;;21.09;59.59;100439.03;4998543;28;45281;-88
2021/08/05 17:46:58;;;;;;;;;2.75;2.25;;;;;21.08;59.90;100426.69;5000108;28;45280;-89
2021/08/05 17:49:23;;;;;;;;;4.25;2.00;;;;;21.06;60.15;100431.31;4999725;28;45464;-87
2021/08/05 17:51:49;;;;;;;;;2.00;2.00;;;;;21.08;59.95;100425.81;4999315;28;45504;-89
2021/08/05 17:54:14;;;;;;;;;2.50;2.50;;;;;21.07;60.33;100422.28;4987487;28;45448;-88
2021/08/05 17:56:41;;;;;;;;;3.00;3.00;;;;;21.06;61.09;100417.94;5000044;28;45312;-89
2021/08/05 17:59:06;;;;;;;;;2.25;2.25;;;;;21.09;61.07;100424.81;4998927;28;45373;-88
2021/08/05 18:01:32;;;;;;;;;2.00;2.00;;;;;21.10;60.82;100423.88;5001319;28;46236;-89
2021/08/05 18:03:57;;;;;;;;;1.00;1.00;;;;;21.08;60.74;100418.66;5003043;28;45595;-90
2021/08/05 18:06:22;;;;;;;;;4.00;2.25;;;;;21.05;61.88;100410.91;5003352;28;45249;-89
2021/08/05 18:08:48;;;;;;;;;3.25;2.75;;;;;21.02;61.66;100411.13;4984683;28;45943;-89
2021/08/05 18:11:14;;;;;;;;;1.00;1.00;;;;;21.00;62.25;100415.75;5003085;28;45395;-89
2021/08/05 18:13:39;;;;;;;;;2.00;2.00;;;;;20.98;62.07;100409.69;5002521;28;45246;-88
2021/08/05 18:16:05;;;;;;;;;5.50;3.00;;;;;20.99;61.99;100406.88;5003171;28;45431;-88
2021/08/05 18:18:30;;;;;;;;;2.25;2.25;;;;;21.00;62.40;100397.91;4984192;28;46988;-88
2021/08/05 18:20:56;;;;;;;;;3.00;3.00;;;;;20.97;62.61;100387.44;5002070;28;46316;-88
2021/08/05 18:23:21;;;;;;;;;1.50;1.50;;;;;20.95;62.82;100377.88;5002704;28;45229;-88
2021/08/05 18:25:46;;;;;;;;;3.00;2.00;;;;;20.96;63.31;100390.25;4964913;28;45574;-88
2021/08/05 18:28:12;;;;;;;;;3.50;2.50;;;;;20.97;62.95;100378.59;5002551;28;45284;-88
2021/08/05 18:30:37;;;;;;;;;1.00;1.00;;;;;20.94;63.16;100376.19;5002273;28;45499;-88
2021/08/05 18:33:03;;;;;;;;;2.50;2.00;;;;;20.93;63.15;100380.69;5002294;28;45206;-87
2021/08/05 18:35:29;;;;;;;;;2.00;2.00;;;;;20.91;63.17;100379.97;5002535;28;45461;-88
2021/08/05 18:37:54;;;;;;;;;3.25;2.75;;;;;20.88;63.35;100380.22;4984729;28;46047;-87
2021/08/05 18:40:20;;;;;;;;;3.00;3.00;;;;;20.87;63.57;100376.69;5002554;28;46131;-88
2021/08/05 18:42:45;;;;;;;;;3.50;3.00;;;;;20.82;63.93;100381.56;5001916;28;45340;-88
2021/08/05 18:45:11;;;;;;;;;5.50;2.00;;;;;20.79;64.09;100377.31;5002021;28;45376;-87
2021/08/05 18:47:36;;;;;;;;;2.00;2.00;;;;;20.80;63.79;100380.84;5002705;28;45278;-87
2021/08/05 18:50:03;;;;;;;;;1.25;1.25;;;;;20.79;64.08;100363.13;4981361;28;47039;-88
2021/08/05 18:52:29;;;;;;;;;3.25;1.25;;;;;20.76;64.24;100363.38;4996827;28;45589;-88
2021/08/05 18:54:54;;;;;;;;;2.00;1.25;;;;;20.74;64.45;100360.00;5002626;28;45241;-89
2021/08/05 18:57:19;;;;;;;;;3.00;3.00;;;;;20.72;64.25;100359.28;4983368;28;47664;-88
2021/08/05 18:59:46;;;;;;;;;2.75;2.75;;;;;20.69;64.35;100358.53;4984109;28;48281;-88
2021/08/05 19:02:12;;;;;;;;;2.50;2.50;;;;;20.69;64.44;100352.38;4992229;28;45455;-88
2021/08/05 19:04:37;;;;;;;;;3.00;2.75;;;;;20.68;64.55;100351.50;4983666;28;45442;-89
2021/08/05 19:07:03;;;;;;;;;3.25;3.25;;;;;20.69;64.52;100352.38;5001792;28;45549;-87
2021/08/05 19:09:28;;;;;;;;;2.25;2.25;;;;;20.71;64.47;100346.91;5002212;28;46382;-88
2021/08/05 19:11:53;;;;;;;;;3.00;2.00;;;;;20.71;64.67;100357.56;5000234;28;45368;-88
2021/08/05 19:14:20;;;;;;;;;4.75;3.00;;;;;20.71;64.79;100352.22;5001859;28;45259;-88
2021/08/05 19:16:47;;;;;;;;;4.00;4.00;;;;;20.69;65.23;100347.03;4981115;28;45488;-88
2021/08/05 19:19:12;;;;;;;;;2.50;2.50;;;;;20.64;65.15;100352.72;4995902;28;45390;-87
2021/08/05 19:21:37;;;;;;;;;2.00;2.00;;;;;20.61;65.38;100354.81;4982539;28;46095;-88
2021/08/05 19:24:03;;;;;;;;;2.00;2.00;;;;;20.57;65.30;100348.88;5002257;28;45348;-87
2021/08/05 19:26:28;;;;;;;;;3.00;2.50;;;;;20.56;65.80;100344.50;5001216;28;45182;-87
2021/08/05 19:28:54;;;;;;;;;4.25;3.25;;;;;20.57;66.28;100346.19;5001613;28;45317;-88
2021/08/05 19:31:19;;;;;;;;;7.00;2.75;;;;;20.53;66.23;100342.09;4980798;28;45167;-88
2021/08/05 19:33:44;;;;;;;;;2.25;2.00;;;;;20.53;66.52;100347.44;4978035;28;45206;-88
2021/08/05 19:36:10;;;;;;;;;1.75;1.75;;;;;20.53;66.86;100353.63;4991433;28;45278;-88
2021/08/05 19:38:35;;;;;;;;;2.00;1.00;;;;;20.50;66.92;100353.88;5002022;28;46705;-88
2021/08/05 19:41:01;;;;;;;;;3.50;2.75;;;;;20.49;67.39;100346.84;4983916;28;45275;-88
2021/08/05 19:43:26;;;;;;;;;3.00;3.00;;;;;20.44;67.98;100333.88;5001819;28;45392;-89
2021/08/05 19:45:52;;;;;;;;;2.25;2.25;;;;;20.44;67.56;100339.22;5001128;28;45279;-88
2021/08/05 19:48:17;;;;;;;;;3.00;3.00;;;;;20.44;67.76;100323.19;5000877;28;46276;-88
2021/08/05 19:50:43;;;;;;;;;4.00;4.00;;;;;20.45;67.91;100340.91;5001265;28;45227;-88
2021/08/05 19:53:08;;;;;;;;;3.00;3.00;;;;;20.48;67.72;100323.78;5000339;28;45432;-89
2021/08/05 19:55:33;;;;;;;;;3.00;2.50;;;;;20.49;68.81;100319.31;5000432;28;45574;-90
2021/08/05 19:57:59;;;;;;;;;3.75;3.00;;;;;20.49;68.18;100317.50;4983164;28;48269;-89
2021/08/05 20:00:25;;;;;;;;;4.00;3.25;;;;;20.51;68.17;100334.22;5000201;28;45389;-93
2021/08/05 20:02:50;;;;;;;;;3.50;2.75;;;;;20.51;68.01;100328.88;4984432;28;45365;-92
2021/08/05 20:05:16;;;;;;;;;2.50;2.50;;;;;20.52;68.71;100322.56;5001526;28;45292;-92
2021/08/05 20:07:41;;;;;;;;;3.75;3.75;;;;;20.51;68.16;100326.22;4983190;28;47483;-93
2021/08/05 20:10:08;;;;;;;;;2.50;1.50;;;;;20.52;68.15;100313.72;5000707;28;45238;-92
2021/08/05 20:12:37;;;;;;;;;2.00;2.00;;;;;20.49;68.35;100314.81;5001274;28;45296;-92
2021/08/05 20:15:07;;;;;;;;;2.00;2.00;;;;;20.50;68.40;100321.84;5000647;28;45274;-91
2021/08/05 20:17:33;;;;;;;;;1.00;1.00;;;;;20.51;68.33;100325.34;5001500;28;46532;-91
2021/08/05 20:19:58;;;;;;;;;1.25;1.25;;;;;20.50;68.62;100320.97;5001343;28;45314;-91
2021/08/05 20:22:23;;;;;;;;;2.50;2.50;;;;;20.49;68.73;100322.81;5000571;28;46654;-92
2021/08/05 20:24:49;;;;;;;;;2.00;2.00;;;;;20.45;68.68;100322.22;5000343;28;45451;-94
2021/08/05 20:27:14;;;;;;;;;2.00;2.00;;;;;20.42;68.78;100318.97;5000717;28;45426;-92
2021/08/05 20:29:41;;;;;;;;;1.50;1.50;;;;;20.41;69.08;100323.44;5000792;28;45307;-93
2021/08/05 20:32:07;;;;;;;;;2.00;2.00;;;;;20.40;69.04;100321.75;5000953;28;45450;-92
2021/08/05 20:34:33;;;;;;;;;1.00;1.00;;;;;20.38;69.06;100310.34;5000093;28;45653;-92
2021/08/05 20:36:58;;;;;;;;;1.25;1.25;;;;;20.40;69.22;100304.88;5000608;28;45579;-92
2021/08/05 20:39:24;;;;;;;;;1.00;1.00;;;;;20.40;69.26;100305.72;5000290;28;45401;-93
2021/08/05 20:41:49;;;;;;;;;1.00;1.00;;;;;20.41;68.89;100309.25;4981266;28;45389;-93
2021/08/05 20:44:14;;;;;;;;;1.00;0.50;;;;;20.42;69.28;100314.44;4982691;28;46121;-92
2021/08/05 20:46:40;;;;;;;;;2.50;1.00;;;;;20.40;69.22;100308.41;5000468;28;45258;-92
2021/08/05 20:49:05;;;;;;;;;1.00;1.00;;;;;20.40;68.93;100313.72;5000738;28;45264;-92
2021/08/05 20:51:31;;;;;;;;;0.50;0.50;;;;;20.38;68.87;100313.00;5000445;28;45455;-92
2021/08/05 20:53:56;;;;;;;;;1.00;1.00;;;;;20.34;68.64;100303.56;4995661;28;45387;-93
2021/08/05 20:56:22;;;;;;;;;0.00;0.00;;;;;20.34;68.47;100311.59;5000168;28;46416;-91
2021/08/05 20:58:47;;;;;;;;;0.00;0.00;;;;;20.32;68.32;100310.88;5000546;28;45264;-91
2021/08/05 21:01:13;;;;;;;;;1.00;1.00;;;;;20.33;68.24;100310.72;4981836;28;45316;-93
2021/08/05 21:03:38;;;;;;;;;0.50;0.00;;;;;20.34;68.31;100301.75;4983018;28;46293;-93
2021/08/05 21:06:04;;;;;;;;;1.00;1.00;;;;;20.35;68.15;100298.09;5000437;28;45538;-91
2021/08/05 21:08:31;;;;;;;;;0.75;0.75;;;;;20.38;68.32;100309.50;4987402;28;45245;-92
2021/08/05 21:10:56;;;;;;;;;0.00;0.00;;;;;20.37;68.37;100306.00;5000468;28;45242;-92